This is the latest recevied weather packets stored in our database for station/object OK1VOF-13. If no packets are shown the sender has not sent any weather packets the latest 10 day(s).
| Time | Temp. | Humidity | Pressure | Rain* | Wind** | Luminosity | Snow |
|---|---|---|---|---|---|---|---|
| 1788572932 | 18.33° C | 61% | 1017.3 hPa | 0 mm | - | - | - |
| 1788572634 | 18.33° C | 61% | 1017 hPa | 0 mm | - | - | - |
| 1788572328 | 18.33° C | 61% | 1016.8 hPa | 0 mm | - | - | - |
| 1788570831 | 18.89° C | 60% | 1017.1 hPa | 0.25 mm | - | - | - |
| 1788570529 | 18.89° C | 60% | 1016.9 hPa | 0.25 mm | - | - | - |
| 1788570234 | 19.44° C | 59% | 1016.8 hPa | 0.25 mm | - | - | - |
| 1788569630 | 19.44° C | 59% | 1017 hPa | 0.25 mm | - | - | - |
| 1788569328 | 19.44° C | 59% | 1017.2 hPa | 0.25 mm | - | - | - |
| 1788568724 | 20° C | 58% | 1016.7 hPa | 0.25 mm | - | - | - |
| 1788568422 | 20° C | 58% | 1016.6 hPa | 0.25 mm | - | - | - |
| 1788568113 | 20° C | 58% | 1016.6 hPa | 0.25 mm | - | - | - |
| 1788566311 | 21.11° C | 57% | 1015.6 hPa | 0 mm | - | - | - |
| 1788566018 | 21.11° C | 56% | 1015.3 hPa | 0 mm | - | - | - |
| 1788565713 | 21.67° C | 56% | 1015.2 hPa | 0 mm | - | - | - |
| 1788565421 | 21.67° C | 56% | 1015.4 hPa | 0 mm | - | - | - |
| 1788565116 | 22.22° C | 56% | 1015.2 hPa | 0 mm | - | - | - |
| 1788564525 | 22.78° C | 55% | 1015.2 hPa | 0 mm | - | - | - |
| 1788563329 | 23.33° C | 54% | 1014.1 hPa | 0 mm | - | - | - |
| 1788562732 | 23.33° C | 53% | 1013.6 hPa | 0 mm | - | - | - |
| 1788562433 | 23.89° C | 53% | 1013.3 hPa | 0 mm | - | - | - |
| 1788562134 | 23.89° C | 53% | 1013.2 hPa | 0 mm | - | - | - |
| 1788561829 | 23.89° C | 53% | 1013.2 hPa | 0 mm | - | - | - |
| 1788561530 | 23.89° C | 53% | 1013.3 hPa | 0 mm | - | - | - |
| 1788561231 | 23.89° C | 53% | 1013.3 hPa | 0 mm | - | - | - |
| 1788560933 | 23.89° C | 53% | 1013.3 hPa | 0 mm | - | - | - |
* Rain latest hour (hover to see other rain measurements)
** Current wind speed in m/s (hover to see current wind gust speed)